createdAt,value
2023-08-15T00:01:33.357Z,1.50
2023-08-15T00:06:55.277Z,1.50
2023-08-15T00:12:17.155Z,1.55
2023-08-15T00:17:39.086Z,1.17
2023-08-15T00:23:01.409Z,1.13
2023-08-15T00:28:23.541Z,1.35
2023-08-15T00:33:45.627Z,1.08
2023-08-15T00:39:07.525Z,1.30
2023-08-15T00:44:29.367Z,1.25
2023-08-15T00:49:52.801Z,1.35
2023-08-15T00:55:14.811Z,1.30
2023-08-15T01:00:36.882Z,1.55
2023-08-15T01:05:58.812Z,1.38
2023-08-15T01:11:20.686Z,1.20
2023-08-15T01:16:46.693Z,1.10
2023-08-15T01:22:22.550Z,1.20
2023-08-15T01:33:31.860Z,0.90
2023-08-15T01:38:59.340Z,1.20
2023-08-15T01:44:22.480Z,1.00
2023-08-15T01:49:44.360Z,0.98
2023-08-15T01:55:06.720Z,0.93
2023-08-15T02:00:28.766Z,1.00
2023-08-15T02:05:50.631Z,0.95
2023-08-15T02:11:13.136Z,0.98
2023-08-15T02:16:35.177Z,1.10
2023-08-15T02:21:57.785Z,1.00
2023-08-15T02:27:19.935Z,1.15
2023-08-15T02:32:41.973Z,0.88
2023-08-15T02:38:04.186Z,1.00
2023-08-15T02:43:26.044Z,0.90
2023-08-15T02:48:47.938Z,0.82
2023-08-15T02:54:09.868Z,0.88
2023-08-15T02:59:31.798Z,0.75
2023-08-15T03:04:53.717Z,0.88
2023-08-15T03:10:15.902Z,0.82
2023-08-15T03:15:38.630Z,0.90
2023-08-15T03:21:03.273Z,0.93
2023-08-15T03:26:27.346Z,1.03
2023-08-15T03:31:49.487Z,0.85
2023-08-15T03:37:11.514Z,0.77
2023-08-15T03:42:33.391Z,0.80
2023-08-15T03:47:55.282Z,0.60
2023-08-15T03:53:17.178Z,0.88
2023-08-15T03:58:39.034Z,0.80
2023-08-15T04:04:01.147Z,0.60
2023-08-15T04:09:23.245Z,0.63
2023-08-15T04:14:45.267Z,0.98
2023-08-15T04:20:08.761Z,0.70
2023-08-15T04:25:31.961Z,0.80
2023-08-15T04:30:53.976Z,0.70
2023-08-15T04:36:15.945Z,0.47
2023-08-15T04:41:37.799Z,0.60
2023-08-15T04:46:59.616Z,0.60
2023-08-15T04:52:21.460Z,0.75
2023-08-15T04:57:43.317Z,0.60
2023-08-15T05:03:05.498Z,0.73
2023-08-15T05:08:27.496Z,0.57
2023-08-15T05:13:49.353Z,0.60
2023-08-15T05:19:11.320Z,0.60
2023-08-15T05:24:33.472Z,0.68
2023-08-15T05:29:55.513Z,0.60
2023-08-15T05:35:17.550Z,0.85
2023-08-15T05:40:40.695Z,0.70
2023-08-15T05:46:02.863Z,0.73
2023-08-15T05:51:25.006Z,0.70
2023-08-15T05:56:46.877Z,0.80
2023-08-15T06:02:09.159Z,0.68
2023-08-15T06:07:31.260Z,0.98
2023-08-15T06:12:56.211Z,0.50
2023-08-15T06:18:18.116Z,0.80
2023-08-15T06:23:40.106Z,0.50
2023-08-15T06:29:02.132Z,0.60
2023-08-15T06:34:24.009Z,0.90
2023-08-15T06:39:45.949Z,0.70
2023-08-15T06:45:12.890Z,0.60
2023-08-15T06:50:34.969Z,0.80
2023-08-15T06:55:56.880Z,0.80
2023-08-15T07:01:18.784Z,1.00
2023-08-15T07:06:40.680Z,1.10
2023-08-15T07:12:04.361Z,1.02
2023-08-15T07:17:26.234Z,1.30
2023-08-15T07:22:48.339Z,1.20
2023-08-15T07:28:10.718Z,1.20
2023-08-15T07:33:32.746Z,0.90
2023-08-15T07:38:54.819Z,1.05
2023-08-15T07:44:16.871Z,1.45
2023-08-15T07:49:39.323Z,1.13
2023-08-15T07:55:01.383Z,1.10
2023-08-15T08:00:24.263Z,0.90
2023-08-15T08:05:47.508Z,1.25
2023-08-15T08:11:10.088Z,1.50
2023-08-15T08:16:32.143Z,1.33
2023-08-15T08:21:54.498Z,1.55
2023-08-15T08:27:16.736Z,1.60
2023-08-15T08:32:38.709Z,1.50
2023-08-15T08:38:00.666Z,1.70
2023-08-15T08:43:22.670Z,1.70
2023-08-15T08:48:45.333Z,1.70
2023-08-15T08:54:07.499Z,1.92
2023-08-15T08:59:29.957Z,1.80
2023-08-15T09:04:54.052Z,1.63
2023-08-15T09:10:16.308Z,1.75
2023-08-15T09:15:41.558Z,1.60
2023-08-15T09:26:33.116Z,1.77
2023-08-15T09:31:55.091Z,1.88
2023-08-15T09:37:17.023Z,1.90
2023-08-15T09:42:38.952Z,1.80
2023-08-15T09:48:01.823Z,2.20
2023-08-15T09:53:25.104Z,1.60
2023-08-15T09:58:47.328Z,2.03
2023-08-15T10:04:14.133Z,1.83
2023-08-15T10:09:36.452Z,1.60
2023-08-15T10:15:02.319Z,1.90
2023-08-15T10:20:24.525Z,2.38
2023-08-15T10:25:50.484Z,1.80
2023-08-15T10:31:12.759Z,2.05
2023-08-15T10:36:34.805Z,2.28
2023-08-15T10:41:59.094Z,1.88
2023-08-15T10:47:24.343Z,1.73
2023-08-15T10:58:22.256Z,1.92
2023-08-15T11:03:45.243Z,1.65
2023-08-15T11:09:07.378Z,1.60
2023-08-15T11:14:29.308Z,1.60
2023-08-15T11:19:51.678Z,1.55
2023-08-15T11:25:13.842Z,1.95
2023-08-15T11:30:35.884Z,1.60
2023-08-15T11:36:05.313Z,1.70
2023-08-15T11:41:27.536Z,1.50
2023-08-15T11:46:54.773Z,1.83
2023-08-15T11:52:18.604Z,1.70
2023-08-15T11:57:41.947Z,1.60
2023-08-15T12:03:04.220Z,1.90
2023-08-15T12:08:30.711Z,2.03
2023-08-15T12:13:52.669Z,1.98
2023-08-15T12:19:17.914Z,1.60
2023-08-15T12:24:42.146Z,1.80
2023-08-15T12:30:12.434Z,1.50
2023-08-15T12:35:37.510Z,1.65
2023-08-15T12:40:59.455Z,1.80
2023-08-15T12:46:21.504Z,1.33
2023-08-15T12:51:43.457Z,1.20
2023-08-15T12:57:05.530Z,1.60
2023-08-15T13:02:30.544Z,1.60
2023-08-15T13:07:52.701Z,1.50
2023-08-15T13:13:14.806Z,1.50
2023-08-15T13:18:37.197Z,1.55
2023-08-15T13:23:59.062Z,1.42
2023-08-15T13:29:21.179Z,1.55
2023-08-15T13:34:43.022Z,1.83
2023-08-15T13:40:05.330Z,1.45
2023-08-15T13:45:27.629Z,1.83
2023-08-15T13:50:49.478Z,1.42
2023-08-15T13:56:12.816Z,1.52
2023-08-15T14:01:35.154Z,1.45
2023-08-15T14:07:00.133Z,1.48
2023-08-15T14:12:22.701Z,1.65
2023-08-15T14:17:44.916Z,1.48
2023-08-15T14:23:07.070Z,1.85
2023-08-15T14:28:31.987Z,1.70
2023-08-15T14:33:53.950Z,1.40
2023-08-15T14:39:15.754Z,1.52
2023-08-15T14:44:37.771Z,1.63
2023-08-15T14:50:01.110Z,1.98
2023-08-15T14:55:23.183Z,1.60
2023-08-15T15:00:48.097Z,1.25
2023-08-15T15:06:09.924Z,1.50
2023-08-15T15:11:31.788Z,1.60
2023-08-15T15:16:56.192Z,1.35
2023-08-15T15:22:19.488Z,1.73
2023-08-15T15:27:41.355Z,1.90
2023-08-15T15:33:03.612Z,1.65
2023-08-15T15:38:25.576Z,1.50
2023-08-15T15:43:49.016Z,1.63
2023-08-15T15:49:11.053Z,1.67
2023-08-15T15:54:32.921Z,1.60
2023-08-15T15:59:54.825Z,1.30
2023-08-15T16:05:16.981Z,1.45
2023-08-15T16:10:39.045Z,1.40
2023-08-15T16:16:00.939Z,1.80
2023-08-15T16:21:23.313Z,1.98
2023-08-15T16:26:45.161Z,1.60
2023-08-15T16:32:07.164Z,1.90
2023-08-15T16:37:29.045Z,1.90
2023-08-15T16:43:16.193Z,1.70
2023-08-15T16:48:38.808Z,2.00
2023-08-15T16:54:00.716Z,2.00
2023-08-15T16:59:22.760Z,2.10
2023-08-15T17:04:45.614Z,2.65
2023-08-15T17:10:08.136Z,2.85
2023-08-15T17:15:30.207Z,2.67
2023-08-15T17:20:53.646Z,2.50
2023-08-15T17:26:15.708Z,2.92
2023-08-15T17:31:37.596Z,2.72
2023-08-15T17:37:02.760Z,2.55
2023-08-15T17:47:47.075Z,2.67
2023-08-15T17:53:09.001Z,2.28
2023-08-15T17:58:50.631Z,2.65
2023-08-15T18:04:12.649Z,2.53
2023-08-15T18:09:35.468Z,2.00
2023-08-15T18:14:57.458Z,2.08
2023-08-15T18:20:19.387Z,2.38
2023-08-15T18:25:41.338Z,2.20
2023-08-15T18:31:03.294Z,2.00
2023-08-15T18:36:25.253Z,2.47
2023-08-15T18:41:47.940Z,2.40
2023-08-15T18:47:09.865Z,1.80
2023-08-15T18:52:31.785Z,1.90
2023-08-15T18:57:53.960Z,2.05
2023-08-15T19:03:15.946Z,1.70
2023-08-15T19:08:37.981Z,1.83
2023-08-15T19:13:59.865Z,1.73
2023-08-15T19:19:21.718Z,1.65
2023-08-15T19:24:45.469Z,1.48
2023-08-15T19:30:08.708Z,1.63
2023-08-15T19:35:31.297Z,1.73
2023-08-15T19:40:53.184Z,1.40
2023-08-15T19:46:15.098Z,1.63
2023-08-15T19:51:37.028Z,1.70
2023-08-15T19:56:58.883Z,1.40
2023-08-15T20:02:23.860Z,1.42
2023-08-15T20:07:46.023Z,1.65
2023-08-15T20:13:08.061Z,1.40
2023-08-15T20:18:30.097Z,1.77
2023-08-15T20:23:52.040Z,1.50
2023-08-15T20:29:14.016Z,1.42
2023-08-15T20:34:36.050Z,1.50
2023-08-15T20:39:57.995Z,1.67
2023-08-15T20:45:19.944Z,1.60
2023-08-15T20:50:41.783Z,1.73
2023-08-15T20:56:03.715Z,2.03
2023-08-15T21:01:26.216Z,1.85
2023-08-15T21:06:48.343Z,1.92
2023-08-15T21:12:10.287Z,1.65
2023-08-15T21:17:32.297Z,1.50
2023-08-15T21:22:54.283Z,1.60
2023-08-15T21:28:17.409Z,1.40
2023-08-15T21:33:39.295Z,1.50
2023-08-15T21:39:01.147Z,1.70
2023-08-15T21:44:23.704Z,1.73
2023-08-15T21:49:45.893Z,1.38
2023-08-15T21:55:08.108Z,1.55
2023-08-15T22:00:29.994Z,1.20
2023-08-15T22:05:51.886Z,1.50
2023-08-15T22:11:14.808Z,1.48
2023-08-15T22:16:36.831Z,1.40
2023-08-15T22:21:58.748Z,1.23
2023-08-15T22:27:21.099Z,1.38
2023-08-15T22:32:43.362Z,1.60
2023-08-15T22:38:05.632Z,1.30
2023-08-15T22:43:27.570Z,1.30
2023-08-15T22:48:49.831Z,1.70
2023-08-15T22:54:11.895Z,1.27
2023-08-15T22:59:33.976Z,1.13
2023-08-15T23:04:55.879Z,1.02
2023-08-15T23:10:17.913Z,1.08
2023-08-15T23:15:40.055Z,0.98
2023-08-15T23:21:02.035Z,1.05
2023-08-15T23:26:24.126Z,0.82
2023-08-15T23:31:46.213Z,1.00
2023-08-15T23:37:08.100Z,1.10
2023-08-15T23:42:30.128Z,0.95
2023-08-15T23:47:51.996Z,1.08
2023-08-15T23:53:14.189Z,1.00
2023-08-15T23:58:36.196Z,1.00
